OUTweather
Home Page Your Weather (Options) Canadian Weather International Weather Contact Us
Enter your " Place, State", US Zip Code or ICAO:  
NowCast ZoneCast Warnings/Advisories Hourly Track Special Radar
Elko, Nevada (89801)  Lat: 40.84N, Lon: 115.76W
Wx Zone: NVZ032 ICAO Used: KEKO
Current Conditions
Updated: UNKNOWN
Sun & Moon Information:
Overcast
Overcast
Temp: 40°F
Humidity: 60%
Wind Speed: CALM
Barometer: 29.95 in.
Dewpoint: 27°F
Heat Index: 40°F
Wind Chill: 40°F
Civil Twilight: 5:55 AM PST Moon Phase:
Waxing Gibbous Moon
Waxing Gibbous Moon
Sunrise: 6:22 AM PST
Sunset: 5:29 PM PST
Civil Twilight: 5:56 PM PST
Forecast for Elko, NV:
(Forecast based on TAF for )
0400 PM PST SAT NOV 29 2014
  
AFTERNOONEVENINGOVERNIGHTMORNING
SNOW SHOWERSNOW SHOWERSNOW SHOWERSNOW SHOWER
Snow
Shower
Snow
Shower
Snow
Shower
Snow
Shower
TAF based forecast:
Dated: 0400 PM PST SAT NOV 29 2014
Afternoon...Possible periods of light snow showers. Then possible periods of light snow showers.
Evening...Possible periods of light snow showers.
Overnight...Possible periods of light snow showers.
Morning...Possible periods of light snow showers.
Original Encoded TAF:
Dated: 0400 PM PST SAT NOV 29 2014
2015/02/26 23:51
TAF 
      AMD KEKO 262245Z 2623/2718 28012G22KT P6SM VCSH OVC050 
      TEMPO 2623/2624 2SM -SHSN 
     FM270100 VRB05KT P6SM OVC050